Time;durP1;ratioP1;P1;durP2;ratioP2;P2;SDS_P1;SDS_P2;PMS_P1;PMS_P2;Temp;Humidity;BMP_temperature;BMP_pressure;BME280_temperature;BME280_humidity;BME280_pressure;Samples;Min_cycle;Max_cycle;Signal;HPM_P1;HPM_P2
2020/12/21 00:00:10;;;;;;;12.82;10.82;;;;;;;;;;4918110;29;20063;-70
2020/12/21 00:02:36;;;;;;;16.50;10.43;;;;;;;;;;4918057;29;20055;-65
2020/12/21 00:05:04;;;;;;;15.98;10.73;;;;;;;;;;4933309;29;20055;-65
2020/12/21 00:07:31;;;;;;;16.20;10.43;;;;;;;;;;4917577;29;20047;-69
2020/12/21 00:09:57;;;;;;;16.98;11.18;;;;;;;;;;4917117;29;20398;-65
2020/12/21 00:12:23;;;;;;;14.30;10.65;;;;;;;;;;4933815;29;20059;-65
2020/12/21 00:14:49;;;;;;;15.10;10.52;;;;;;;;;;4933052;29;20485;-66
2020/12/21 00:17:15;;;;;;;14.05;10.40;;;;;;;;;;4901710;29;20541;-66
2020/12/21 00:19:42;;;;;;;12.60;10.15;;;;;;;;;;4917559;29;20047;-68
2020/12/21 00:22:08;;;;;;;14.13;10.60;;;;;;;;;;4917916;29;20522;-65
2020/12/21 00:24:34;;;;;;;16.10;10.52;;;;;;;;;;4927136;29;20051;-63
2020/12/21 00:27:00;;;;;;;12.95;10.55;;;;;;;;;;4926147;29;20052;-62
2020/12/21 00:29:26;;;;;;;13.65;10.02;;;;;;;;;;4928509;29;20053;-60
2020/12/21 00:31:53;;;;;;;16.35;11.85;;;;;;;;;;4924859;29;20055;-68
2020/12/21 00:34:19;;;;;;;13.73;10.38;;;;;;;;;;4901448;29;20044;-67
2020/12/21 00:36:49;;;;;;;14.35;10.52;;;;;;;;;;4917061;29;20059;-68
2020/12/21 00:39:16;;;;;;;13.25;10.30;;;;;;;;;;4917746;29;20083;-69
2020/12/21 00:41:43;;;;;;;15.65;11.38;;;;;;;;;;4917449;29;20056;-65
2020/12/21 00:44:10;;;;;;;13.82;10.32;;;;;;;;;;4917121;29;20047;-69
2020/12/21 00:46:36;;;;;;;12.25;9.82;;;;;;;;;;4935733;29;20047;-71
2020/12/21 00:49:05;;;;;;;13.93;10.35;;;;;;;;;;4937103;29;20717;-65
2020/12/21 00:51:32;;;;;;;12.82;10.02;;;;;;;;;;4937195;29;20047;-65
2020/12/21 00:53:58;;;;;;;13.20;9.68;;;;;;;;;;4936563;29;20058;-64
2020/12/21 00:56:24;;;;;;;12.20;9.77;;;;;;;;;;4936687;29;20487;-68
2020/12/21 00:58:51;;;;;;;13.95;10.60;;;;;;;;;;4921160;29;20051;-68
2020/12/21 01:01:20;;;;;;;14.93;11.13;;;;;;;;;;4938244;29;20056;-64
2020/12/21 01:04:02;;;;;;;15.13;11.02;;;;;;;;;;4922006;29;20134;-66
2020/12/21 01:06:30;;;;;;;17.80;11.02;;;;;;;;;;4920587;29;20059;-69
2020/12/21 01:15:51;;;;;;;16.15;11.05;;;;;;;;;;4953135;29;20561;-67
2020/12/21 01:18:17;;;;;;;16.80;11.57;;;;;;;;;;4955753;29;20406;-63
2020/12/21 01:20:44;;;;;;;16.00;11.60;;;;;;;;;;4956170;29;20052;-62
2020/12/21 01:23:10;;;;;;;19.23;12.15;;;;;;;;;;4955759;29;20130;-70
2020/12/21 01:25:36;;;;;;;19.05;13.15;;;;;;;;;;4939269;29;20080;-67
2020/12/21 01:28:04;;;;;;;16.35;12.15;;;;;;;;;;4955359;29;20126;-68
2020/12/21 01:30:30;;;;;;;17.73;11.73;;;;;;;;;;4955548;29;20126;-62
2020/12/21 01:32:56;;;;;;;16.35;12.05;;;;;;;;;;4955328;29;20061;-64
2020/12/21 01:35:23;;;;;;;15.95;12.73;;;;;;;;;;4955161;29;20051;-67
2020/12/21 01:37:49;;;;;;;15.48;11.45;;;;;;;;;;4954996;29;20047;-68
2020/12/21 01:40:15;;;;;;;19.08;12.00;;;;;;;;;;4955503;29;20051;-66
2020/12/21 01:42:41;;;;;;;17.85;12.60;;;;;;;;;;4955299;29;20052;-69
2020/12/21 01:45:08;;;;;;;18.05;12.82;;;;;;;;;;4955001;29;20383;-67
2020/12/21 01:47:35;;;;;;;19.10;13.38;;;;;;;;;;4954841;29;20073;-68
2020/12/21 01:50:03;;;;;;;18.27;13.43;;;;;;;;;;4955264;29;20054;-68
2020/12/21 01:52:30;;;;;;;19.15;13.20;;;;;;;;;;4955393;29;20113;-68
2020/12/21 01:54:56;;;;;;;17.63;12.48;;;;;;;;;;4939119;29;20059;-64
2020/12/21 01:57:22;;;;;;;18.60;12.52;;;;;;;;;;4954103;28;20098;-68
2020/12/21 01:59:48;;;;;;;18.45;12.88;;;;;;;;;;4954825;29;20053;-67
2020/12/21 02:02:14;;;;;;;16.33;11.45;;;;;;;;;;4955164;29;20055;-69
2020/12/21 02:04:41;;;;;;;19.00;12.68;;;;;;;;;;4954884;29;20047;-69
2020/12/21 02:07:07;;;;;;;18.70;13.77;;;;;;;;;;4953823;29;20046;-66
2020/12/21 02:09:34;;;;;;;19.38;14.57;;;;;;;;;;4955162;29;20059;-63
2020/12/21 02:12:00;;;;;;;20.52;14.38;;;;;;;;;;4954718;29;20418;-67
2020/12/21 02:14:28;;;;;;;22.35;14.85;;;;;;;;;;4954718;29;20082;-62
2020/12/21 02:16:55;;;;;;;21.13;14.73;;;;;;;;;;4953772;29;20047;-61
2020/12/21 02:19:21;;;;;;;18.65;13.40;;;;;;;;;;4954992;29;20047;-70
2020/12/21 02:21:47;;;;;;;20.33;13.18;;;;;;;;;;4954418;29;20051;-65
2020/12/21 02:24:13;;;;;;;19.17;12.95;;;;;;;;;;4954638;29;20055;-70
2020/12/21 02:26:40;;;;;;;21.80;14.75;;;;;;;;;;4954070;29;20520;-63
2020/12/21 02:29:07;;;;;;;20.77;14.85;;;;;;;;;;4954096;29;20106;-68
2020/12/21 02:31:33;;;;;;;20.48;13.95;;;;;;;;;;4954607;29;20055;-63
2020/12/21 02:33:59;;;;;;;18.23;13.93;;;;;;;;;;4954385;29;20385;-70
2020/12/21 02:36:25;;;;;;;20.05;13.68;;;;;;;;;;4953809;29;20059;-63
2020/12/21 02:38:51;;;;;;;21.75;13.32;;;;;;;;;;4953640;29;20051;-61
2020/12/21 02:41:18;;;;;;;19.73;13.75;;;;;;;;;;4954434;29;20054;-65
2020/12/21 02:43:45;;;;;;;19.92;13.93;;;;;;;;;;4954456;29;20150;-73
2020/12/21 02:46:14;;;;;;;18.60;12.65;;;;;;;;;;4953805;29;20066;-68
2020/12/21 02:48:40;;;;;;;19.48;13.93;;;;;;;;;;4954151;29;20139;-62
2020/12/21 02:51:07;;;;;;;19.98;14.18;;;;;;;;;;4953986;29;20054;-66
2020/12/21 02:53:33;;;;;;;21.92;15.25;;;;;;;;;;4954033;29;20058;-66
2020/12/21 02:55:59;;;;;;;27.00;16.65;;;;;;;;;;4953626;29;20051;-64
2020/12/21 02:58:25;;;;;;;24.30;15.75;;;;;;;;;;4954173;29;20066;-70
2020/12/21 03:00:51;;;;;;;26.45;16.05;;;;;;;;;;4954005;29;20054;-63
2020/12/21 03:03:17;;;;;;;25.80;16.85;;;;;;;;;;4953734;29;20058;-64
2020/12/21 03:05:44;;;;;;;25.33;16.58;;;;;;;;;;4953194;29;20051;-72
2020/12/21 03:08:10;;;;;;;24.92;16.55;;;;;;;;;;4952973;28;20220;-64
2020/12/21 03:10:37;;;;;;;21.38;15.23;;;;;;;;;;4954438;29;20051;-64
2020/12/21 03:13:04;;;;;;;24.70;16.27;;;;;;;;;;4953765;29;20047;-66
2020/12/21 03:15:30;;;;;;;24.55;16.65;;;;;;;;;;4953873;29;20102;-67
2020/12/21 03:17:56;;;;;;;23.45;15.57;;;;;;;;;;4953515;29;20051;-68
2020/12/21 03:20:23;;;;;;;24.90;17.17;;;;;;;;;;4953864;29;20047;-63
2020/12/21 03:22:49;;;;;;;21.40;15.50;;;;;;;;;;4937685;29;20059;-68
2020/12/21 03:25:16;;;;;;;23.15;15.93;;;;;;;;;;4952434;29;20055;-66
2020/12/21 03:27:43;;;;;;;21.70;14.32;;;;;;;;;;4953487;29;20058;-68
2020/12/21 03:30:10;;;;;;;23.50;14.98;;;;;;;;;;4953590;29;20043;-67
2020/12/21 03:32:36;;;;;;;24.40;16.02;;;;;;;;;;4953491;29;20059;-65
2020/12/21 03:35:04;;;;;;;22.42;15.68;;;;;;;;;;4953143;29;20502;-69
2020/12/21 03:37:32;;;;;;;22.98;14.90;;;;;;;;;;4952667;29;20054;-66
2020/12/21 03:40:08;;;;;;;24.75;16.25;;;;;;;;;;4952988;29;20058;-67
2020/12/21 03:42:35;;;;;;;26.05;15.10;;;;;;;;;;4937393;29;20421;-69
2020/12/21 03:45:02;;;;;;;23.92;14.30;;;;;;;;;;4952796;29;20056;-64
2020/12/21 03:47:28;;;;;;;23.23;14.38;;;;;;;;;;4952010;29;20061;-68
2020/12/21 03:49:54;;;;;;;21.08;14.18;;;;;;;;;;4936804;29;20226;-64
2020/12/21 03:52:21;;;;;;;20.83;14.25;;;;;;;;;;4953200;29;20074;-67
2020/12/21 03:54:47;;;;;;;19.42;14.15;;;;;;;;;;4952899;29;20059;-66
2020/12/21 03:57:13;;;;;;;22.95;15.30;;;;;;;;;;4951857;29;20059;-68
2020/12/21 03:59:40;;;;;;;23.23;15.20;;;;;;;;;;4953219;29;20126;-69
2020/12/21 04:02:06;;;;;;;20.85;13.90;;;;;;;;;;4952914;29;20051;-70
2020/12/21 04:04:32;;;;;;;21.55;13.90;;;;;;;;;;4952794;29;20051;-66
2020/12/21 04:06:58;;;;;;;18.80;13.82;;;;;;;;;;4951722;29;20046;-64
2020/12/21 04:09:24;;;;;;;20.15;14.20;;;;;;;;;;4957808;29;20051;-62
2020/12/21 04:11:50;;;;;;;25.15;15.13;;;;;;;;;;4957256;29;20087;-68
2020/12/21 04:14:17;;;;;;;18.15;13.55;;;;;;;;;;4961171;29;20426;-62
2020/12/21 04:16:43;;;;;;;21.65;14.10;;;;;;;;;;4958283;29;20138;-64
2020/12/21 04:19:10;;;;;;;19.88;12.68;;;;;;;;;;4952199;28;20054;-64
2020/12/21 04:21:36;;;;;;;24.48;14.90;;;;;;;;;;4952699;29;20051;-63
2020/12/21 04:24:02;;;;;;;24.98;14.27;;;;;;;;;;4952351;29;20055;-66
2020/12/21 04:26:28;;;;;;;22.13;14.63;;;;;;;;;;4952042;29;20106;-70
2020/12/21 04:28:54;;;;;;;25.27;15.02;;;;;;;;;;4953793;29;20046;-65
2020/12/21 04:31:20;;;;;;;22.02;14.63;;;;;;;;;;4951890;29;20056;-64
2020/12/21 04:33:47;;;;;;;24.05;14.93;;;;;;;;;;4952286;29;20066;-68
2020/12/21 04:36:14;;;;;;;29.90;16.90;;;;;;;;;;4936307;29;20134;-62
2020/12/21 04:38:41;;;;;;;28.02;16.58;;;;;;;;;;4952495;29;20087;-69
2020/12/21 04:41:09;;;;;;;26.25;16.23;;;;;;;;;;4951910;29;20265;-62
2020/12/21 04:43:35;;;;;;;28.60;16.88;;;;;;;;;;4952370;29;20062;-67
2020/12/21 04:46:05;;;;;;;25.13;15.50;;;;;;;;;;4951649;29;20051;-68
2020/12/21 04:48:36;;;;;;;24.92;16.00;;;;;;;;;;4951437;29;20063;-64
2020/12/21 04:51:04;;;;;;;31.25;18.83;;;;;;;;;;4967969;28;20391;-68
2020/12/21 04:53:30;;;;;;;25.42;16.70;;;;;;;;;;4952379;29;20174;-68
2020/12/21 04:55:56;;;;;;;24.58;15.95;;;;;;;;;;4951330;29;20055;-67
2020/12/21 04:58:23;;;;;;;28.40;17.98;;;;;;;;;;4952260;29;20486;-69
2020/12/21 05:00:49;;;;;;;25.45;16.02;;;;;;;;;;4952076;29;20051;-67
2020/12/21 05:03:15;;;;;;;25.15;16.05;;;;;;;;;;4953543;29;20405;-63
2020/12/21 05:05:42;;;;;;;20.65;14.65;;;;;;;;;;4951167;29;20514;-65
2020/12/21 05:08:17;;;;;;;23.70;13.65;;;;;;;;;;4952111;29;20062;-67
2020/12/21 05:11:00;;;;;;;19.40;13.82;;;;;;;;;;4951963;29;20051;-71
2020/12/21 05:13:27;;;;;;;20.92;14.35;;;;;;;;;;4952272;29;20051;-69
2020/12/21 05:15:54;;;;;;;21.88;14.07;;;;;;;;;;4950990;29;20055;-68
2020/12/21 05:18:27;;;;;;;23.42;14.35;;;;;;;;;;4952099;29;20048;-67
2020/12/21 05:20:58;;;;;;;21.27;12.85;;;;;;;;;;4951818;29;20406;-66
2020/12/21 05:23:25;;;;;;;18.83;12.70;;;;;;;;;;4952067;29;20060;-70
2020/12/21 05:26:12;;;;;;;19.35;12.68;;;;;;;;;;4950732;29;20054;-67
2020/12/21 05:28:40;;;;;;;18.05;12.68;;;;;;;;;;4953171;29;20091;-66
2020/12/21 05:31:08;;;;;;;17.00;12.48;;;;;;;;;;4936378;29;20075;-67
2020/12/21 05:33:39;;;;;;;16.17;11.85;;;;;;;;;;4956398;29;20054;-68
2020/12/21 05:36:09;;;;;;;17.45;11.80;;;;;;;;;;4952058;29;20142;-65
2020/12/21 05:38:36;;;;;;;17.10;12.30;;;;;;;;;;4955215;29;20048;-67
2020/12/21 05:41:16;;;;;;;19.02;12.63;;;;;;;;;;4955362;29;20054;-67
2020/12/21 05:43:46;;;;;;;20.20;11.85;;;;;;;;;;4955374;29;20054;-66
2020/12/21 05:46:14;;;;;;;18.38;12.35;;;;;;;;;;4954665;29;20055;-66
2020/12/21 05:48:55;;;;;;;17.70;12.90;;;;;;;;;;4954854;29;20054;-69
2020/12/21 05:51:26;;;;;;;17.77;12.23;;;;;;;;;;4955167;29;20039;-68
2020/12/21 05:53:54;;;;;;;19.15;13.23;;;;;;;;;;4955070;29;20051;-62
2020/12/21 05:56:21;;;;;;;16.05;12.07;;;;;;;;;;4954696;29;20066;-68
2020/12/21 05:58:48;;;;;;;16.92;12.18;;;;;;;;;;4954944;29;20051;-66
2020/12/21 06:01:14;;;;;;;16.98;12.30;;;;;;;;;;4954550;29;20043;-66
2020/12/21 06:03:50;;;;;;;18.70;13.40;;;;;;;;;;4956084;29;20051;-69
2020/12/21 06:06:24;;;;;;;19.65;12.68;;;;;;;;;;4954375;29;20047;-69
2020/12/21 06:08:53;;;;;;;18.63;12.05;;;;;;;;;;4954919;29;20055;-68
2020/12/21 06:11:32;;;;;;;19.73;12.45;;;;;;;;;;4954766;29;20407;-65
2020/12/21 06:14:15;;;;;;;20.75;14.15;;;;;;;;;;4954889;29;20055;-66
2020/12/21 06:16:43;;;;;;;20.33;15.52;;;;;;;;;;4954768;29;20063;-71
2020/12/21 06:19:13;;;;;;;19.92;14.68;;;;;;;;;;4955102;29;20482;-65
2020/12/21 06:21:41;;;;;;;18.38;13.10;;;;;;;;;;4955244;29;20052;-68
2020/12/21 06:24:26;;;;;;;17.67;13.60;;;;;;;;;;4954474;29;20047;-67
2020/12/21 06:26:54;;;;;;;19.67;13.48;;;;;;;;;;4954151;29;20582;-62
2020/12/21 06:29:20;;;;;;;17.20;13.18;;;;;;;;;;4954901;29;20055;-67
2020/12/21 06:31:47;;;;;;;19.33;13.05;;;;;;;;;;4954831;29;20513;-65
2020/12/21 06:34:16;;;;;;;18.73;12.50;;;;;;;;;;4954254;29;20054;-62
2020/12/21 06:36:43;;;;;;;20.58;13.23;;;;;;;;;;4955154;29;20066;-65
2020/12/21 06:39:09;;;;;;;16.95;12.05;;;;;;;;;;4954517;29;20139;-67
2020/12/21 06:41:36;;;;;;;20.95;13.35;;;;;;;;;;4954520;29;20059;-64
2020/12/21 06:44:06;;;;;;;26.10;15.15;;;;;;;;;;4953823;28;20044;-68
2020/12/21 06:46:34;;;;;;;23.88;15.55;;;;;;;;;;4954810;29;20059;-67
2020/12/21 06:49:13;;;;;;;21.17;16.42;;;;;;;;;;4954123;29;20055;-70
2020/12/21 06:51:45;;;;;;;22.08;16.05;;;;;;;;;;4954220;29;20066;-63
2020/12/21 06:54:12;;;;;;;21.95;15.63;;;;;;;;;;4954357;29;20051;-71
2020/12/21 06:56:40;;;;;;;20.10;13.88;;;;;;;;;;4952887;29;20063;-62
2020/12/21 06:59:14;;;;;;;22.58;15.50;;;;;;;;;;4954299;29;20122;-68
2020/12/21 07:01:43;;;;;;;22.60;14.70;;;;;;;;;;4954207;29;20058;-69
2020/12/21 07:04:16;;;;;;;22.23;13.52;;;;;;;;;;4953473;29;20055;-69
2020/12/21 07:06:43;;;;;;;23.02;14.18;;;;;;;;;;4953059;29;20416;-63
2020/12/21 07:12:57;;;;;;;25.02;13.98;;;;;;;;;;4981346;23;20090;-66
2020/12/21 07:15:23;;;;;;;23.90;14.13;;;;;;;;;;4956128;28;20050;-68
2020/12/21 07:17:52;;;;;;;20.88;14.27;;;;;;;;;;4956718;28;20058;-67
2020/12/21 07:20:18;;;;;;;21.98;13.23;;;;;;;;;;4956982;28;20053;-67
2020/12/21 07:22:44;;;;;;;18.85;13.43;;;;;;;;;;4956308;28;20066;-65
2020/12/21 07:25:11;;;;;;;21.00;13.50;;;;;;;;;;4956609;28;20061;-64
2020/12/21 07:27:38;;;;;;;22.83;15.10;;;;;;;;;;4956783;28;20055;-69
2020/12/21 07:30:08;;;;;;;21.80;15.10;;;;;;;;;;4956416;28;20051;-72
2020/12/21 07:32:34;;;;;;;27.10;16.75;;;;;;;;;;4956482;28;20067;-66
2020/12/21 07:35:01;;;;;;;29.38;19.30;;;;;;;;;;4956424;28;20046;-67
2020/12/21 07:37:31;;;;;;;26.13;16.75;;;;;;;;;;4956352;28;20051;-68
2020/12/21 07:39:57;;;;;;;24.70;15.40;;;;;;;;;;4956381;28;20134;-65
2020/12/21 07:42:23;;;;;;;20.02;13.52;;;;;;;;;;4953910;28;20046;-65
2020/12/21 07:44:51;;;;;;;19.40;13.63;;;;;;;;;;4953574;28;20055;-64
2020/12/21 07:47:28;;;;;;;19.88;13.32;;;;;;;;;;4938316;28;20059;-65
2020/12/21 07:49:54;;;;;;;20.35;13.05;;;;;;;;;;4938945;28;20063;-66
2020/12/21 07:52:20;;;;;;;20.70;13.45;;;;;;;;;;4938730;28;20397;-63
2020/12/21 07:54:46;;;;;;;21.45;13.23;;;;;;;;;;4953261;28;20054;-65
2020/12/21 07:57:13;;;;;;;19.65;13.60;;;;;;;;;;4953404;28;20065;-64
2020/12/21 07:59:41;;;;;;;20.38;12.85;;;;;;;;;;4953985;28;20086;-63
2020/12/21 08:02:08;;;;;;;19.00;12.82;;;;;;;;;;4953995;28;20053;-64
2020/12/21 08:04:34;;;;;;;17.52;12.93;;;;;;;;;;4954221;28;20055;-65
2020/12/21 08:07:05;;;;;;;18.98;12.80;;;;;;;;;;4952988;28;20058;-62
2020/12/21 08:09:32;;;;;;;17.27;12.75;;;;;;;;;;4954285;28;20055;-71
2020/12/21 08:11:59;;;;;;;17.50;13.18;;;;;;;;;;4970222;28;20054;-64
2020/12/21 08:14:25;;;;;;;20.75;13.50;;;;;;;;;;4954283;28;20050;-69
2020/12/21 08:16:51;;;;;;;17.88;12.55;;;;;;;;;;4953110;28;20409;-71
2020/12/21 08:19:23;;;;;;;20.55;14.20;;;;;;;;;;4954024;28;20058;-71
2020/12/21 08:21:49;;;;;;;21.23;13.13;;;;;;;;;;4953029;28;20051;-64
2020/12/21 08:24:16;;;;;;;19.25;12.43;;;;;;;;;;4954323;28;20047;-74
2020/12/21 08:26:42;;;;;;;16.52;12.18;;;;;;;;;;4953382;28;20165;-64
2020/12/21 08:29:18;;;;;;;16.27;11.48;;;;;;;;;;4953673;28;20065;-63
2020/12/21 08:31:44;;;;;;;16.63;11.63;;;;;;;;;;4953751;28;20498;-68
2020/12/21 08:34:14;;;;;;;15.57;10.93;;;;;;;;;;4936584;28;20082;-61
2020/12/21 08:36:41;;;;;;;15.27;10.93;;;;;;;;;;4950489;28;20105;-61
2020/12/21 08:39:19;;;;;;;16.52;10.85;;;;;;;;;;4954740;28;20043;-62
2020/12/21 08:41:55;;;;;;;15.32;10.35;;;;;;;;;;4942851;28;20051;-62
2020/12/21 08:44:23;;;;;;;11.98;9.45;;;;;;;;;;4945492;28;20051;-62
2020/12/21 08:46:53;;;;;;;13.63;10.07;;;;;;;;;;4941371;28;20073;-62
2020/12/21 08:49:20;;;;;;;13.48;10.32;;;;;;;;;;4939693;28;20525;-62
2020/12/21 08:51:47;;;;;;;13.90;9.40;;;;;;;;;;4960307;28;20043;-71
2020/12/21 08:54:13;;;;;;;12.90;9.52;;;;;;;;;;4943341;28;20051;-68
2020/12/21 08:56:40;;;;;;;13.70;9.38;;;;;;;;;;4942156;28;20051;-67
2020/12/21 08:59:06;;;;;;;14.27;9.30;;;;;;;;;;4949270;28;20418;-66
2020/12/21 09:01:32;;;;;;;13.52;9.40;;;;;;;;;;4957649;28;20053;-69
2020/12/21 09:03:58;;;;;;;14.68;10.30;;;;;;;;;;4956631;28;20050;-68
2020/12/21 09:06:25;;;;;;;10.40;8.02;;;;;;;;;;4958452;28;20050;-66
2020/12/21 09:08:55;;;;;;;13.43;8.13;;;;;;;;;;4960241;28;20105;-73
2020/12/21 09:11:22;;;;;;;11.52;8.55;;;;;;;;;;4945906;28;20136;-72
2020/12/21 09:13:48;;;;;;;10.35;8.02;;;;;;;;;;4963257;28;20059;-69
2020/12/21 09:16:21;;;;;;;13.15;8.25;;;;;;;;;;4945156;28;20188;-71
2020/12/21 09:18:47;;;;;;;10.90;8.35;;;;;;;;;;4961301;28;20050;-70
2020/12/21 09:21:20;;;;;;;12.27;8.75;;;;;;;;;;4945235;28;20489;-71
2020/12/21 09:23:46;;;;;;;13.77;9.15;;;;;;;;;;4966107;28;20043;-69
2020/12/21 09:26:13;;;;;;;12.63;9.50;;;;;;;;;;4961289;28;20053;-68
2020/12/21 09:28:40;;;;;;;12.80;10.93;;;;;;;;;;4964501;28;20081;-75
2020/12/21 09:31:08;;;;;;;12.13;9.25;;;;;;;;;;4959502;28;20043;-69
2020/12/21 09:33:35;;;;;;;11.77;8.68;;;;;;;;;;4971964;28;20130;-66
2020/12/21 09:36:01;;;;;;;11.15;8.40;;;;;;;;;;4956896;28;20391;-71
2020/12/21 09:38:28;;;;;;;13.10;8.88;;;;;;;;;;4958261;28;20055;-72
2020/12/21 09:40:54;;;;;;;11.40;8.23;;;;;;;;;;4957807;28;20412;-68
2020/12/21 09:43:20;;;;;;;10.45;8.88;;;;;;;;;;4958033;28;20057;-66
2020/12/21 09:45:47;;;;;;;15.38;11.30;;;;;;;;;;4956530;28;20438;-70
2020/12/21 09:48:13;;;;;;;14.20;9.93;;;;;;;;;;4956687;28;20043;-70
2020/12/21 09:50:41;;;;;;;15.98;10.15;;;;;;;;;;4957934;28;20130;-69
2020/12/21 09:53:07;;;;;;;18.55;9.90;;;;;;;;;;4957931;28;20425;-77
2020/12/21 09:55:33;;;;;;;15.25;9.20;;;;;;;;;;4956952;28;20058;-71
2020/12/21 09:57:59;;;;;;;11.85;9.23;;;;;;;;;;4957071;28;20051;-68
2020/12/21 10:00:28;;;;;;;11.73;8.57;;;;;;;;;;4974607;28;20106;-66
2020/12/21 10:02:54;;;;;;;10.90;8.70;;;;;;;;;;4957238;28;20142;-70
2020/12/21 10:05:20;;;;;;;14.43;8.10;;;;;;;;;;4956774;28;20066;-64
2020/12/21 10:07:46;;;;;;;12.48;8.00;;;;;;;;;;4957099;28;20051;-74
2020/12/21 10:10:13;;;;;;;11.38;8.27;;;;;;;;;;4957614;28;20400;-65
2020/12/21 10:12:39;;;;;;;10.48;8.25;;;;;;;;;;4957557;28;20055;-63
2020/12/21 10:15:05;;;;;;;11.90;8.13;;;;;;;;;;4957009;28;20509;-67
2020/12/21 10:17:32;;;;;;;13.05;8.40;;;;;;;;;;4956466;28;20452;-69
2020/12/21 10:19:58;;;;;;;13.60;7.93;;;;;;;;;;4956978;28;20429;-70
2020/12/21 10:22:24;;;;;;;10.15;7.90;;;;;;;;;;4957446;28;20133;-74
2020/12/21 10:24:50;;;;;;;8.50;6.82;;;;;;;;;;4956648;28;20051;-66
2020/12/21 10:27:16;;;;;;;11.18;7.78;;;;;;;;;;4956005;28;20065;-72
2020/12/21 10:29:43;;;;;;;9.88;6.93;;;;;;;;;;4957155;28;20062;-63
2020/12/21 10:32:09;;;;;;;8.50;6.03;;;;;;;;;;4957098;28;20055;-69
2020/12/21 10:34:35;;;;;;;10.45;5.43;;;;;;;;;;4956533;28;20089;-71
2020/12/21 10:37:01;;;;;;;8.30;4.82;;;;;;;;;;4955611;28;20065;-70
2020/12/21 10:39:46;;;;;;;10.85;5.38;;;;;;;;;;4946197;28;20090;-69
2020/12/21 10:42:12;;;;;;;6.97;4.90;;;;;;;;;;4956613;28;20248;-72
2020/12/21 10:44:39;;;;;;;7.35;4.90;;;;;;;;;;4957070;28;20059;-69
2020/12/21 10:47:05;;;;;;;7.25;5.65;;;;;;;;;;4955665;28;20065;-71
2020/12/21 10:49:31;;;;;;;7.40;4.63;;;;;;;;;;4956745;28;20063;-70
2020/12/21 10:52:00;;;;;;;7.45;4.70;;;;;;;;;;4956236;28;20043;-68
2020/12/21 10:54:26;;;;;;;7.60;4.95;;;;;;;;;;4959150;28;20053;-72
2020/12/21 10:56:53;;;;;;;7.40;5.50;;;;;;;;;;4944956;28;20058;-66
2020/12/21 10:59:19;;;;;;;8.23;5.07;;;;;;;;;;4952820;28;20043;-67
2020/12/21 11:01:46;;;;;;;6.65;5.18;;;;;;;;;;4958736;28;20051;-66
2020/12/21 11:04:13;;;;;;;8.15;5.88;;;;;;;;;;4945175;28;20059;-61
2020/12/21 11:06:41;;;;;;;7.70;4.65;;;;;;;;;;4956941;28;20413;-67
2020/12/21 11:09:07;;;;;;;4.97;4.13;;;;;;;;;;4944490;28;20043;-67
2020/12/21 11:11:34;;;;;;;7.13;4.72;;;;;;;;;;4943626;28;20054;-68
2020/12/21 11:14:03;;;;;;;6.13;4.47;;;;;;;;;;4943039;28;20055;-67
2020/12/21 11:16:30;;;;;;;6.88;4.65;;;;;;;;;;4946300;28;20059;-66
2020/12/21 11:18:57;;;;;;;7.35;4.88;;;;;;;;;;4944006;28;20053;-65
2020/12/21 11:21:23;;;;;;;9.68;4.40;;;;;;;;;;4963174;28;20053;-66
2020/12/21 11:23:58;;;;;;;6.25;4.78;;;;;;;;;;4952614;28;20050;-65
2020/12/21 11:26:24;;;;;;;9.57;5.00;;;;;;;;;;4956774;28;20051;-68
2020/12/21 11:28:50;;;;;;;7.10;4.70;;;;;;;;;;4962924;28;20061;-65
2020/12/21 11:31:17;;;;;;;5.78;4.70;;;;;;;;;;4969297;28;20526;-63
2020/12/21 11:33:44;;;;;;;6.75;3.80;;;;;;;;;;4954688;28;20070;-62
2020/12/21 11:36:11;;;;;;;6.55;4.15;;;;;;;;;;4966878;28;20070;-63
2020/12/21 11:38:38;;;;;;;6.40;4.45;;;;;;;;;;4958286;28;20066;-65
2020/12/21 11:41:05;;;;;;;5.97;4.55;;;;;;;;;;4938460;29;20106;-69
2020/12/21 11:43:32;;;;;;;7.18;4.20;;;;;;;;;;4954248;28;20059;-65
2020/12/21 11:45:58;;;;;;;7.78;4.70;;;;;;;;;;4950118;28;20047;-68
2020/12/21 11:48:24;;;;;;;6.03;4.05;;;;;;;;;;4956589;28;20056;-73
2020/12/21 11:50:50;;;;;;;6.53;4.30;;;;;;;;;;4939923;29;20248;-70
2020/12/21 11:53:16;;;;;;;7.65;4.63;;;;;;;;;;4952125;28;20048;-70
2020/12/21 11:55:43;;;;;;;7.25;4.28;;;;;;;;;;4936911;29;20054;-65
2020/12/21 11:58:09;;;;;;;5.78;4.40;;;;;;;;;;4937759;29;20051;-69
2020/12/21 12:00:36;;;;;;;7.18;4.72;;;;;;;;;;4939334;29;20062;-67
2020/12/21 12:03:02;;;;;;;5.00;4.07;;;;;;;;;;4944047;29;20062;-72
2020/12/21 12:05:28;;;;;;;8.10;5.20;;;;;;;;;;4939525;29;20043;-66
2020/12/21 12:07:54;;;;;;;5.78;4.40;;;;;;;;;;4946866;29;20043;-65
2020/12/21 12:10:20;;;;;;;8.48;4.78;;;;;;;;;;4946361;29;20055;-68
2020/12/21 12:12:46;;;;;;;6.40;4.85;;;;;;;;;;4940802;28;20051;-65
2020/12/21 12:15:13;;;;;;;8.55;4.47;;;;;;;;;;4941051;29;20055;-67
2020/12/21 12:17:39;;;;;;;5.22;4.40;;;;;;;;;;4954336;28;20057;-65
2020/12/21 12:20:06;;;;;;;7.28;3.90;;;;;;;;;;4940902;29;20506;-67
2020/12/21 12:22:32;;;;;;;6.95;4.35;;;;;;;;;;4946303;29;20063;-64
2020/12/21 12:24:58;;;;;;;10.48;4.75;;;;;;;;;;4946930;29;20166;-64
2020/12/21 12:27:25;;;;;;;7.75;4.53;;;;;;;;;;4953059;28;20519;-61
2020/12/21 12:29:53;;;;;;;7.72;4.28;;;;;;;;;;4946974;29;20495;-61
2020/12/21 12:32:19;;;;;;;7.45;4.60;;;;;;;;;;4953641;28;20051;-61
2020/12/21 12:34:45;;;;;;;7.70;4.43;;;;;;;;;;4948139;29;20122;-64
2020/12/21 12:37:12;;;;;;;6.13;3.60;;;;;;;;;;4954647;28;20067;-67
2020/12/21 12:39:38;;;;;;;7.32;4.38;;;;;;;;;;4947373;29;20159;-67
2020/12/21 12:42:04;;;;;;;7.60;4.15;;;;;;;;;;4949065;29;20051;-65
2020/12/21 12:44:31;;;;;;;8.52;4.38;;;;;;;;;;4932640;29;20349;-66
2020/12/21 12:46:57;;;;;;;5.68;4.05;;;;;;;;;;4944849;29;20426;-64
2020/12/21 12:49:23;;;;;;;6.30;4.20;;;;;;;;;;4949598;29;20446;-67
2020/12/21 12:51:56;;;;;;;6.13;4.47;;;;;;;;;;4950058;29;20055;-65
2020/12/21 12:54:22;;;;;;;5.70;4.25;;;;;;;;;;4949480;29;20055;-64
2020/12/21 12:56:48;;;;;;;6.32;4.10;;;;;;;;;;4949865;29;20049;-66
2020/12/21 12:59:14;;;;;;;6.97;4.47;;;;;;;;;;4952433;28;20059;-64
2020/12/21 13:01:41;;;;;;;7.60;3.95;;;;;;;;;;4951469;29;20083;-64
2020/12/21 13:04:07;;;;;;;6.45;3.75;;;;;;;;;;4951315;29;20082;-64
2020/12/21 13:06:34;;;;;;;5.43;3.28;;;;;;;;;;4950481;29;20057;-65
2020/12/21 13:12:41;;;;;;;4.53;3.35;;;;;;;;;;4958384;23;20532;-67
2020/12/21 13:15:07;;;;;;;4.47;2.80;;;;;;;;;;4950798;29;20490;-64
2020/12/21 13:17:34;;;;;;;5.75;2.83;;;;;;;;;;4967228;28;20091;-66
2020/12/21 13:20:00;;;;;;;4.32;2.72;;;;;;;;;;4966438;28;20058;-64
2020/12/21 13:22:26;;;;;;;4.07;2.75;;;;;;;;;;4951011;29;20043;-68
2020/12/21 13:24:52;;;;;;;3.92;2.50;;;;;;;;;;4950823;29;20059;-64
2020/12/21 13:27:18;;;;;;;3.90;2.88;;;;;;;;;;4950579;29;20066;-66
2020/12/21 13:29:45;;;;;;;8.15;3.97;;;;;;;;;;4950520;29;20525;-66
2020/12/21 13:32:11;;;;;;;6.38;3.97;;;;;;;;;;4951338;29;20082;-68
2020/12/21 13:34:37;;;;;;;6.32;3.80;;;;;;;;;;4951318;29;20051;-68
2020/12/21 13:37:04;;;;;;;6.15;4.10;;;;;;;;;;4950312;29;20058;-67
2020/12/21 13:39:30;;;;;;;6.93;4.63;;;;;;;;;;4950834;29;20055;-65
2020/12/21 13:42:11;;;;;;;9.55;5.30;;;;;;;;;;4922351;29;20131;-64
2020/12/21 13:44:38;;;;;;;6.55;4.30;;;;;;;;;;4959253;28;20050;-67
2020/12/21 13:47:04;;;;;;;6.45;3.85;;;;;;;;;;4953655;28;20110;-65
2020/12/21 13:49:31;;;;;;;6.13;3.92;;;;;;;;;;4957007;28;20083;-66
2020/12/21 13:51:57;;;;;;;6.20;4.03;;;;;;;;;;4953910;28;20130;-66
2020/12/21 13:54:23;;;;;;;6.80;3.80;;;;;;;;;;4957768;28;20051;-67
2020/12/21 13:56:49;;;;;;;5.50;4.05;;;;;;;;;;4957075;28;20067;-66
2020/12/21 13:59:16;;;;;;;6.93;4.00;;;;;;;;;;4960626;28;20074;-65
2020/12/21 14:01:42;;;;;;;5.80;4.53;;;;;;;;;;4960558;28;20506;-63
2020/12/21 14:04:08;;;;;;;6.05;3.72;;;;;;;;;;4960761;28;20429;-66
2020/12/21 14:06:34;;;;;;;6.90;3.80;;;;;;;;;;4954591;28;20051;-63
2020/12/21 14:09:01;;;;;;;5.20;3.88;;;;;;;;;;4946409;28;20050;-64
2020/12/21 14:11:28;;;;;;;12.45;4.22;;;;;;;;;;4964654;28;20419;-63
2020/12/21 14:13:55;;;;;;;8.10;4.22;;;;;;;;;;4958461;28;20051;-68
2020/12/21 14:16:21;;;;;;;6.07;4.00;;;;;;;;;;4956969;28;20051;-68
2020/12/21 14:18:51;;;;;;;6.28;4.00;;;;;;;;;;4960036;28;20066;-66
2020/12/21 14:21:19;;;;;;;7.60;4.00;;;;;;;;;;4941743;28;20087;-69
2020/12/21 14:27:25;;;;;;;7.00;4.40;;;;;;;;;;4945249;23;20090;-66
2020/12/21 14:29:52;;;;;;;9.85;5.05;;;;;;;;;;4944778;28;20553;-62
2020/12/21 14:32:18;;;;;;;10.93;5.85;;;;;;;;;;4941706;29;20143;-67
2020/12/21 14:34:44;;;;;;;9.40;5.82;;;;;;;;;;4941235;28;20625;-63
2020/12/21 14:37:10;;;;;;;7.45;4.40;;;;;;;;;;4947091;29;20047;-65
2020/12/21 14:39:36;;;;;;;4.90;3.40;;;;;;;;;;4955100;28;20055;-64
2020/12/21 14:42:15;;;;;;;6.63;3.33;;;;;;;;;;4954808;28;20130;-64
2020/12/21 14:44:42;;;;;;;7.85;3.50;;;;;;;;;;4937339;28;20498;-65